Time,TemperatureF,DewpointF,PressureIn,WindDirection,WindDirectionDegrees,WindSpeedMPH,WindSpeedGustMPH,Humidity,HourlyPrecipIn,Conditions,Clouds,dailyrainin,SoftwareType,DateUTC
2013-01-14 00:02:00,2.0,-3.0,-100.00,NNW,345,0.0,0.0,78,0.00,,,-99.99,,2013-01-14 07:02:00,
2013-01-14 00:12:00,1.0,-4.0,-100.00,South,185,0.0,0.0,78,0.00,,,-99.99,,2013-01-14 07:12:00,
2013-01-14 00:22:00,1.0,-4.0,-100.00,South,185,0.0,0.0,78,0.00,,,-99.99,,2013-01-14 07:22:00,
2013-01-14 00:32:00,0.0,-5.0,-100.00,NW,310,0.0,0.0,79,0.00,,,-99.99,,2013-01-14 07:32:00,
2013-01-14 00:42:00,-1.0,-6.0,-100.00,ESE,110,0.0,0.0,79,0.00,,,-99.99,,2013-01-14 07:42:00,
2013-01-14 00:52:00,-1.0,-6.0,-100.00,NW,315,0.0,0.0,79,0.00,,,-99.99,,2013-01-14 07:52:00,
2013-01-14 01:02:00,-2.0,-7.0,-100.00,WNW,290,0.0,0.0,79,0.00,,,-99.99,,2013-01-14 08:02:00,
2013-01-14 01:11:00,-1.0,-6.0,-100.00,SSE,150,0.0,2.0,79,0.00,,,-99.99,,2013-01-14 08:11:00,
2013-01-14 01:22:00,-2.0,-6.0,-100.00,SSE,150,0.0,0.0,80,0.00,,,-99.99,,2013-01-14 08:22:00,
2013-01-14 01:32:00,-2.0,-7.0,-100.00,SSE,155,0.0,0.0,80,0.00,,,-99.99,,2013-01-14 08:32:00,
2013-01-14 01:42:00,-3.0,-7.0,-100.00,SSE,155,0.0,0.0,80,0.00,,,-99.99,,2013-01-14 08:42:00,
2013-01-14 01:52:00,-2.0,-7.0,-100.00,SE,125,0.0,0.0,80,0.00,,,-99.99,,2013-01-14 08:52:00,
2013-01-14 02:02:00,-3.0,-7.0,-100.00,ESE,115,0.0,0.0,80,0.00,,,-99.99,,2013-01-14 09:02:00,
2013-01-14 02:11:00,-3.0,-8.0,-100.00,North,5,0.0,0.0,80,0.00,,,-99.99,,2013-01-14 09:11:00,
2013-01-14 02:22:00,-3.0,-7.0,-100.00,South,185,0.0,0.0,80,0.00,,,-99.99,,2013-01-14 09:22:00,
2013-01-14 02:33:00,-2.0,-7.0,-100.00,East,100,0.0,0.0,80,0.00,,,-99.99,,2013-01-14 09:33:00,
2013-01-14 02:42:00,-2.0,-6.0,-100.00,ENE,75,0.0,2.0,81,0.00,,,-99.99,,2013-01-14 09:42:00,
2013-01-14 02:52:00,-1.0,-6.0,-100.00,NNE,30,0.0,2.0,81,0.00,,,-99.99,,2013-01-14 09:52:00,
2013-01-14 03:02:00,-1.0,-6.0,-100.00,ENE,65,0.0,0.0,81,0.00,,,-99.99,,2013-01-14 10:02:00,
2013-01-14 03:11:00,-1.0,-6.0,-100.00,ENE,65,0.0,0.0,81,0.00,,,-99.99,,2013-01-14 10:11:00,
2013-01-14 03:22:00,-1.0,-6.0,-100.00,WNW,290,0.0,0.0,81,0.00,,,-99.99,,2013-01-14 10:22:00,
2013-01-14 03:32:00,-1.0,-5.0,-100.00,SSE,155,0.0,0.0,81,0.00,,,-99.99,,2013-01-14 10:32:00,
2013-01-14 03:42:00,-1.0,-5.0,-100.00,North,350,0.0,0.0,81,0.00,,,-99.99,,2013-01-14 10:42:00,
2013-01-14 03:52:00,-1.0,-5.0,-100.00,NE,40,0.0,0.0,81,0.00,,,-99.99,,2013-01-14 10:52:00,
2013-01-14 04:01:00,-1.0,-5.0,-100.00,ENE,75,0.0,0.0,81,0.00,,,-99.99,,2013-01-14 11:01:00,
2013-01-14 04:11:00,-1.0,-5.0,-100.00,ENE,60,0.0,0.0,81,0.00,,,-99.99,,2013-01-14 11:11:00,
2013-01-14 04:22:00,-1.0,-6.0,-100.00,North,5,0.0,0.0,81,0.00,,,-99.99,,2013-01-14 11:22:00,
2013-01-14 04:32:00,-2.0,-6.0,-100.00,West,270,0.0,0.0,81,0.00,,,-99.99,,2013-01-14 11:32:00,
2013-01-14 04:42:00,-2.0,-6.0,-100.00,West,270,0.0,0.0,81,0.00,,,-99.99,,2013-01-14 11:42:00,
2013-01-14 04:53:00,-2.0,-7.0,-100.00,NW,320,0.0,0.0,81,0.00,,,-99.99,,2013-01-14 11:53:00,
2013-01-14 05:02:00,-2.0,-7.0,-100.00,WSW,255,0.0,0.0,81,0.00,,,-99.99,,2013-01-14 12:02:00,
2013-01-14 05:11:00,-2.0,-7.0,-100.00,WSW,255,0.0,0.0,81,0.00,,,-99.99,,2013-01-14 12:11:00,
2013-01-14 05:22:00,-3.0,-7.0,-100.00,NE,45,0.0,0.0,81,0.00,,,-99.99,,2013-01-14 12:22:00,
2013-01-14 05:33:00,-2.0,-6.0,-100.00,NNW,335,0.0,0.0,82,0.00,,,-99.99,,2013-01-14 12:33:00,
2013-01-14 05:42:00,-2.0,-6.0,-100.00,WNW,295,0.0,0.0,82,0.00,,,-99.99,,2013-01-14 12:42:00,
2013-01-14 05:52:00,-2.0,-6.0,-100.00,ESE,115,0.0,0.0,82,0.00,,,-99.99,,2013-01-14 12:52:00,
2013-01-14 06:02:00,-1.0,-6.0,-100.00,ESE,105,0.0,0.0,82,0.00,,,-99.99,,2013-01-14 13:02:00,
2013-01-14 06:12:00,-2.0,-6.0,-100.00,SE,135,0.0,0.0,82,0.00,,,-99.99,,2013-01-14 13:12:00,
2013-01-14 06:22:00,-2.0,-6.0,-100.00,SE,140,1.0,4.0,82,0.00,,,-99.99,,2013-01-14 13:22:00,
2013-01-14 06:33:00,-2.0,-6.0,-100.00,NW,325,1.0,3.0,82,0.00,,,-99.99,,2013-01-14 13:33:00,
2013-01-14 06:43:00,-3.0,-7.0,-100.00,NW,315,0.0,0.0,82,0.00,,,-99.99,,2013-01-14 13:43:00,
2013-01-14 06:52:00,-4.0,-8.0,-100.00,NW,305,0.0,0.0,82,0.00,,,-99.99,,2013-01-14 13:52:00,
2013-01-14 07:02:00,-4.0,-8.0,-100.00,NE,55,0.0,0.0,82,0.00,,,-99.99,,2013-01-14 14:02:00,
2013-01-14 07:12:00,-4.0,-8.0,-100.00,NE,55,0.0,0.0,82,0.00,,,-99.99,,2013-01-14 14:12:00,
2013-01-14 07:22:00,-5.0,-9.0,-100.00,NNW,330,0.0,0.0,82,0.00,,,-99.99,,2013-01-14 14:22:00,
2013-01-14 07:32:00,-5.0,-9.0,-100.00,ENE,75,0.0,0.0,82,0.00,,,-99.99,,2013-01-14 14:32:00,
2013-01-14 07:42:00,-5.0,-9.0,-100.00,WNW,295,0.0,1.0,82,0.00,,,-99.99,,2013-01-14 14:42:00,
2013-01-14 07:52:00,-6.0,-10.0,-100.00,NNW,330,0.0,0.0,82,0.00,,,-99.99,,2013-01-14 14:52:00,
2013-01-14 08:02:00,-5.0,-9.0,-100.00,North,0,0.0,0.0,82,0.00,,,-99.99,,2013-01-14 15:02:00,
2013-01-14 08:12:00,-5.0,-9.0,-100.00,NW,315,0.0,0.0,82,0.00,,,-99.99,,2013-01-14 15:12:00,
2013-01-14 08:22:00,-5.0,-9.0,-100.00,NNW,335,1.0,2.0,82,0.00,,,-99.99,,2013-01-14 15:22:00,
2013-01-14 08:33:00,-5.0,-9.0,-100.00,WNW,295,0.0,3.0,82,0.00,,,-99.99,,2013-01-14 15:33:00,
2013-01-14 08:42:00,-3.0,-8.0,-100.00,WNW,290,0.0,0.0,82,0.00,,,-99.99,,2013-01-14 15:42:00,
2013-01-14 08:52:00,-3.0,-7.0,-100.00,West,260,0.0,0.0,82,0.00,,,-99.99,,2013-01-14 15:52:00,
2013-01-14 09:02:00,-2.0,-6.0,-100.00,SW,220,0.0,0.0,82,0.00,,,-99.99,,2013-01-14 16:02:00,
2013-01-14 09:12:00,1.0,-3.0,-100.00,SW,220,0.0,0.0,82,0.00,,,-99.99,,2013-01-14 16:12:00,
2013-01-14 09:22:00,2.0,-3.0,-100.00,SW,225,0.0,0.0,82,0.00,,,-99.99,,2013-01-14 16:22:00,
2013-01-14 09:33:00,1.0,-3.0,-100.00,East,90,1.0,2.0,82,0.00,,,-99.99,,2013-01-14 16:33:00,
2013-01-14 09:42:00,1.0,-3.0,-100.00,NNW,330,0.0,1.0,82,0.00,,,-99.99,,2013-01-14 16:42:00,
2013-01-14 09:52:00,1.0,-3.0,-100.00,WNW,295,0.0,0.0,82,0.00,,,-99.99,,2013-01-14 16:52:00,
2013-01-14 10:02:00,1.0,-3.0,-100.00,East,85,0.0,1.0,82,0.00,,,-99.99,,2013-01-14 17:02:00,
2013-01-14 10:12:00,1.0,-3.0,-100.00,East,85,0.0,1.0,82,0.00,,,-99.99,,2013-01-14 17:12:00,
2013-01-14 10:22:00,2.0,-2.0,-100.00,ENE,60,0.0,0.0,82,0.00,,,-99.99,,2013-01-14 17:22:00,
2013-01-14 10:33:00,2.0,-2.0,-100.00,ENE,60,0.0,0.0,82,0.00,,,-99.99,,2013-01-14 17:33:00,
2013-01-14 10:42:00,2.0,-2.0,-100.00,ENE,60,0.0,0.0,82,0.00,,,-99.99,,2013-01-14 17:42:00,
2013-01-14 10:53:00,5.0,1.0,-100.00,NW,325,0.0,0.0,82,0.00,,,-99.99,,2013-01-14 17:53:00,
2013-01-14 11:02:00,5.0,1.0,-100.00,NW,325,0.0,0.0,82,0.00,,,-99.99,,2013-01-14 18:02:00,
2013-01-14 11:12:00,5.0,1.0,-100.00,NW,325,0.0,0.0,82,0.00,,,-99.99,,2013-01-14 18:12:00,
2013-01-14 11:23:00,12.0,6.0,-100.00,East,85,0.0,2.0,76,0.00,,,-99.99,,2013-01-14 18:23:00,
2013-01-14 11:33:00,13.0,6.0,-100.00,NW,305,0.0,2.0,72,0.00,,,-99.99,,2013-01-14 18:33:00,
2013-01-14 12:02:00,15.0,5.0,-100.00,WNW,285,0.0,3.0,65,0.00,,,-99.99,,2013-01-14 19:02:00,
2013-01-14 12:12:00,15.0,3.0,-100.00,SW,230,1.0,5.0,58,0.00,,,-99.99,,2013-01-14 19:12:00,
2013-01-14 12:22:00,17.0,4.0,-100.00,West,260,3.0,5.0,55,0.00,,,-99.99,,2013-01-14 19:22:00,
2013-01-14 12:32:00,17.0,3.0,-100.00,WSW,240,2.0,6.0,52,0.00,,,-99.99,,2013-01-14 19:32:00,
2013-01-14 12:42:00,17.0,2.0,-100.00,WSW,255,1.0,6.0,50,0.00,,,-99.99,,2013-01-14 19:42:00,
2013-01-14 12:52:00,18.0,2.0,-100.00,WSW,255,1.0,7.0,48,0.00,,,-99.99,,2013-01-14 19:52:00,
2013-01-14 13:03:00,17.0,1.0,-100.00,WSW,250,2.0,6.0,47,0.00,,,-99.99,,2013-01-14 20:03:00,
2013-01-14 13:12:00,18.0,1.0,-100.00,West,275,3.0,6.0,47,0.00,,,-99.99,,2013-01-14 20:12:00,
2013-01-14 13:22:00,17.0,-1.0,-100.00,SW,235,3.0,7.0,45,0.00,,,-99.99,,2013-01-14 20:22:00,
2013-01-14 13:33:00,17.0,-1.0,-100.00,West,260,2.0,6.0,45,0.00,,,-99.99,,2013-01-14 20:33:00,
2013-01-14 13:42:00,17.0,-1.0,-100.00,WSW,240,3.0,7.0,45,0.00,,,-99.99,,2013-01-14 20:42:00,
2013-01-14 13:52:00,15.0,-2.0,-100.00,West,260,4.0,6.0,45,0.00,,,-99.99,,2013-01-14 20:52:00,
2013-01-14 14:02:00,15.0,-2.0,-100.00,WSW,255,4.0,7.0,45,0.00,,,-99.99,,2013-01-14 21:02:00,
2013-01-14 14:12:00,16.0,-1.0,-100.00,West,260,4.0,7.0,45,0.00,,,-99.99,,2013-01-14 21:12:00,
2013-01-14 14:22:00,17.0,-1.0,-100.00,WSW,255,2.0,6.0,45,0.00,,,-99.99,,2013-01-14 21:22:00,
2013-01-14 14:32:00,17.0,-1.0,-100.00,West,260,4.0,6.0,45,0.00,,,-99.99,,2013-01-14 21:32:00,
2013-01-14 14:42:00,16.0,-1.0,-100.00,West,270,4.0,6.0,44,0.00,,,-99.99,,2013-01-14 21:42:00,
2013-01-14 14:53:00,16.0,-2.0,-100.00,WSW,250,4.0,6.0,44,0.00,,,-99.99,,2013-01-14 21:53:00,
2013-01-14 15:02:00,16.0,-2.0,-100.00,West,260,1.0,7.0,43,0.00,,,-99.99,,2013-01-14 22:02:00,
2013-01-14 15:12:00,17.0,-2.0,-100.00,SW,235,1.0,5.0,43,0.00,,,-99.99,,2013-01-14 22:12:00,
2013-01-14 15:22:00,16.0,-2.0,-100.00,WSW,240,3.0,5.0,43,0.00,,,-99.99,,2013-01-14 22:22:00,
2013-01-14 15:32:00,15.0,-3.0,-100.00,West,260,0.0,6.0,43,0.00,,,-99.99,,2013-01-14 22:32:00,
2013-01-14 15:42:00,15.0,-3.0,-100.00,West,260,0.0,6.0,43,0.00,,,-99.99,,2013-01-14 22:42:00,
2013-01-14 15:52:00,14.0,-4.0,-100.00,WSW,245,0.0,6.0,43,0.00,,,-99.99,,2013-01-14 22:52:00,
2013-01-14 16:02:00,14.0,-4.0,-100.00,WSW,255,0.0,4.0,44,0.00,,,-99.99,,2013-01-14 23:02:00,
2013-01-14 16:12:00,13.0,-5.0,-100.00,West,260,3.0,6.0,44,0.00,,,-99.99,,2013-01-14 23:12:00,
2013-01-14 16:22:00,12.0,-6.0,-100.00,WSW,250,1.0,5.0,44,0.00,,,-99.99,,2013-01-14 23:22:00,
2013-01-14 16:32:00,10.0,-7.0,-100.00,West,260,0.0,4.0,45,0.00,,,-99.99,,2013-01-14 23:32:00,
2013-01-14 16:42:00,9.0,-8.0,-100.00,WSW,240,0.0,1.0,45,0.00,,,-99.99,,2013-01-14 23:42:00,
2013-01-14 16:52:00,8.0,-8.0,-100.00,West,275,0.0,1.0,46,0.00,,,-99.99,,2013-01-14 23:52:00,
2013-01-14 17:02:00,7.0,-9.0,-100.00,WSW,245,0.0,2.0,47,0.00,,,-99.99,,2013-01-15 00:02:00,
2013-01-14 17:12:00,7.0,-9.0,-100.00,NW,320,0.0,0.0,48,0.00,,,-99.99,,2013-01-15 00:12:00,
2013-01-14 17:22:00,7.0,-9.0,-100.00,WNW,295,0.0,0.0,49,0.00,,,-99.99,,2013-01-15 00:22:00,
2013-01-14 17:32:00,7.0,-8.0,-100.00,East,100,0.0,1.0,50,0.00,,,-99.99,,2013-01-15 00:32:00,
2013-01-14 17:42:00,6.0,-9.0,-100.00,SE,140,1.0,3.0,50,0.00,,,-99.99,,2013-01-15 00:42:00,
2013-01-14 17:52:00,5.0,-9.0,-100.00,SE,140,2.0,4.0,51,0.00,,,-99.99,,2013-01-15 00:52:00,
2013-01-14 18:02:00,4.0,-9.0,-100.00,SSE,155,1.0,4.0,52,0.00,,,-99.99,,2013-01-15 01:02:00,
2013-01-14 18:12:00,3.0,-10.0,-100.00,SE,135,1.0,4.0,53,0.00,,,-99.99,,2013-01-15 01:12:00,
2013-01-14 18:22:00,2.0,-10.0,-100.00,WNW,300,1.0,7.0,54,0.00,,,-99.99,,2013-01-15 01:22:00,
2013-01-14 18:32:00,2.0,-10.0,-100.00,SE,135,5.0,9.0,56,0.00,,,-99.99,,2013-01-15 01:32:00,
2013-01-14 18:42:00,2.0,-9.0,-100.00,SE,135,7.0,9.0,57,0.00,,,-99.99,,2013-01-15 01:42:00,
2013-01-14 18:52:00,2.0,-9.0,-100.00,SE,140,6.0,9.0,58,0.00,,,-99.99,,2013-01-15 01:52:00,
2013-01-14 19:02:00,2.0,-9.0,-100.00,SE,145,4.0,8.0,59,0.00,,,-99.99,,2013-01-15 02:02:00,
2013-01-14 19:11:00,2.0,-9.0,-100.00,SE,130,4.0,9.0,59,0.00,,,-99.99,,2013-01-15 02:11:00,
2013-01-14 19:22:00,1.0,-9.0,-100.00,ESE,115,3.0,6.0,60,0.00,,,-99.99,,2013-01-15 02:22:00,
2013-01-14 19:32:00,1.0,-9.0,-100.00,ESE,120,4.0,7.0,60,0.00,,,-99.99,,2013-01-15 02:32:00,
2013-01-14 19:42:00,1.0,-10.0,-100.00,SE,135,2.0,4.0,60,0.00,,,-99.99,,2013-01-15 02:42:00,
2013-01-14 19:52:00,0.0,-11.0,-100.00,SE,135,0.0,4.0,60,0.00,,,-99.99,,2013-01-15 02:52:00,
2013-01-14 20:02:00,-1.0,-11.0,-100.00,SSE,165,1.0,4.0,61,0.00,,,-99.99,,2013-01-15 03:02:00,
2013-01-14 20:12:00,-1.0,-11.0,-100.00,SE,145,0.0,4.0,61,0.00,,,-99.99,,2013-01-15 03:12:00,
2013-01-14 20:22:00,-2.0,-12.0,-100.00,SE,135,3.0,6.0,62,0.00,,,-99.99,,2013-01-15 03:22:00,
2013-01-14 20:32:00,-2.0,-12.0,-100.00,South,175,2.0,9.0,62,0.00,,,-99.99,,2013-01-15 03:32:00,
2013-01-14 20:42:00,-2.0,-12.0,-100.00,SE,125,2.0,8.0,63,0.00,,,-99.99,,2013-01-15 03:42:00,
2013-01-14 20:52:00,-2.0,-12.0,-100.00,SE,125,3.0,6.0,64,0.00,,,-99.99,,2013-01-15 03:52:00,
2013-01-14 21:02:00,-3.0,-12.0,-100.00,SE,135,0.0,4.0,64,0.00,,,-99.99,,2013-01-15 04:02:00,
2013-01-14 21:12:00,-4.0,-13.0,-100.00,SE,130,0.0,0.0,64,0.00,,,-99.99,,2013-01-15 04:12:00,
2013-01-14 21:22:00,-5.0,-14.0,-100.00,SE,130,0.0,2.0,64,0.00,,,-99.99,,2013-01-15 04:22:00,
2013-01-14 21:32:00,-4.0,-13.0,-100.00,East,100,1.0,2.0,65,0.00,,,-99.99,,2013-01-15 04:32:00,
2013-01-14 21:42:00,-4.0,-13.0,-100.00,SE,130,4.0,6.0,65,0.00,,,-99.99,,2013-01-15 04:42:00,
2013-01-14 21:52:00,-5.0,-14.0,-100.00,ESE,110,0.0,7.0,66,0.00,,,-99.99,,2013-01-15 04:52:00,
2013-01-14 22:03:00,-6.0,-14.0,-100.00,NNE,25,0.0,3.0,66,0.00,,,-99.99,,2013-01-15 05:03:00,
2013-01-14 22:12:00,-5.0,-13.0,-100.00,SE,125,4.0,6.0,67,0.00,,,-99.99,,2013-01-15 05:12:00,
2013-01-14 22:22:00,-5.0,-12.0,-100.00,SE,140,2.0,7.0,67,0.00,,,-99.99,,2013-01-15 05:22:00,
2013-01-14 22:32:00,-6.0,-14.0,-100.00,SE,140,0.0,6.0,68,0.00,,,-99.99,,2013-01-15 05:32:00,
2013-01-14 22:42:00,-7.0,-15.0,-100.00,ESE,115,4.0,6.0,68,0.00,,,-99.99,,2013-01-15 05:42:00,
2013-01-14 22:52:00,-6.0,-14.0,-100.00,ESE,120,5.0,9.0,68,0.00,,,-99.99,,2013-01-15 05:52:00,
2013-01-14 23:02:00,-7.0,-14.0,-100.00,SE,135,4.0,7.0,69,0.00,,,-99.99,,2013-01-15 06:02:00,
2013-01-14 23:12:00,-7.0,-14.0,-100.00,ESE,120,5.0,7.0,69,0.00,,,-99.99,,2013-01-15 06:12:00,
2013-01-14 23:22:00,-7.0,-14.0,-100.00,SE,135,4.0,9.0,69,0.00,,,-99.99,,2013-01-15 06:22:00,
2013-01-14 23:32:00,-8.0,-15.0,-100.00,SE,130,1.0,6.0,69,0.00,,,-99.99,,2013-01-15 06:32:00,
2013-01-14 23:42:00,-9.0,-16.0,-100.00,NE,35,2.0,4.0,70,0.00,,,-99.99,,2013-01-15 06:42:00,
2013-01-14 23:52:00,-9.0,-16.0,-100.00,East,100,2.0,3.0,70,0.00,,,-99.99,,2013-01-15 06:52:00,